sensor_id;sensor_type;location;lat;lon;timestamp;temperature;humidity
10492;DHT22;5293;51.464;-2.566;2024-01-30T00:01:48;11.80;99.90
10492;DHT22;5293;51.464;-2.566;2024-01-30T00:04:14;11.80;99.90
10492;DHT22;5293;51.464;-2.566;2024-01-30T00:06:40;11.80;99.90
10492;DHT22;5293;51.464;-2.566;2024-01-30T00:09:05;11.80;99.90
10492;DHT22;5293;51.464;-2.566;2024-01-30T00:11:31;11.70;99.90
10492;DHT22;5293;51.464;-2.566;2024-01-30T00:13:57;11.70;99.90
10492;DHT22;5293;51.464;-2.566;2024-01-30T00:16:23;11.70;99.90
10492;DHT22;5293;51.464;-2.566;2024-01-30T00:18:50;11.70;99.90
10492;DHT22;5293;51.464;-2.566;2024-01-30T00:21:17;11.70;99.90
10492;DHT22;5293;51.464;-2.566;2024-01-30T00:23:45;11.70;99.90
10492;DHT22;5293;51.464;-2.566;2024-01-30T00:26:11;11.70;99.90
10492;DHT22;5293;51.464;-2.566;2024-01-30T00:28:38;11.80;99.90
10492;DHT22;5293;51.464;-2.566;2024-01-30T00:31:04;11.70;99.90
10492;DHT22;5293;51.464;-2.566;2024-01-30T00:33:30;11.80;99.90
10492;DHT22;5293;51.464;-2.566;2024-01-30T00:35:56;11.80;99.90
10492;DHT22;5293;51.464;-2.566;2024-01-30T00:38:22;11.80;99.90
10492;DHT22;5293;51.464;-2.566;2024-01-30T00:40:48;11.80;99.90
10492;DHT22;5293;51.464;-2.566;2024-01-30T00:43:14;11.80;99.90
10492;DHT22;5293;51.464;-2.566;2024-01-30T00:45:39;11.70;99.90
10492;DHT22;5293;51.464;-2.566;2024-01-30T00:48:05;11.80;99.90
10492;DHT22;5293;51.464;-2.566;2024-01-30T00:50:31;11.70;99.90
10492;DHT22;5293;51.464;-2.566;2024-01-30T00:52:57;11.60;99.90
10492;DHT22;5293;51.464;-2.566;2024-01-30T00:55:22;11.50;99.90
10492;DHT22;5293;51.464;-2.566;2024-01-30T00:57:48;11.50;99.90
10492;DHT22;5293;51.464;-2.566;2024-01-30T01:00:14;11.50;99.90
10492;DHT22;5293;51.464;-2.566;2024-01-30T01:02:42;11.50;99.90
10492;DHT22;5293;51.464;-2.566;2024-01-30T01:05:08;11.30;99.90
10492;DHT22;5293;51.464;-2.566;2024-01-30T01:07:34;11.20;99.90
10492;DHT22;5293;51.464;-2.566;2024-01-30T01:10:00;11.10;99.90
10492;DHT22;5293;51.464;-2.566;2024-01-30T01:12:26;10.80;99.90
10492;DHT22;5293;51.464;-2.566;2024-01-30T01:14:51;10.60;99.90
10492;DHT22;5293;51.464;-2.566;2024-01-30T01:17:17;10.50;99.90
10492;DHT22;5293;51.464;-2.566;2024-01-30T01:19:44;10.40;99.90
10492;DHT22;5293;51.464;-2.566;2024-01-30T01:22:10;10.30;99.90
10492;DHT22;5293;51.464;-2.566;2024-01-30T01:24:36;10.30;99.90
10492;DHT22;5293;51.464;-2.566;2024-01-30T01:27:02;10.40;99.90
10492;DHT22;5293;51.464;-2.566;2024-01-30T01:29:28;10.30;99.90
10492;DHT22;5293;51.464;-2.566;2024-01-30T01:31:57;10.10;99.90
10492;DHT22;5293;51.464;-2.566;2024-01-30T01:34:24;10.10;99.90
10492;DHT22;5293;51.464;-2.566;2024-01-30T01:36:50;10.00;99.90
10492;DHT22;5293;51.464;-2.566;2024-01-30T01:39:16;9.80;99.90
10492;DHT22;5293;51.464;-2.566;2024-01-30T01:41:42;9.90;99.90
10492;DHT22;5293;51.464;-2.566;2024-01-30T01:44:08;9.90;99.90
10492;DHT22;5293;51.464;-2.566;2024-01-30T01:46:34;9.80;99.90
10492;DHT22;5293;51.464;-2.566;2024-01-30T01:49:04;9.80;99.90
10492;DHT22;5293;51.464;-2.566;2024-01-30T01:51:31;9.70;99.90
10492;DHT22;5293;51.464;-2.566;2024-01-30T01:54:00;9.70;99.90
10492;DHT22;5293;51.464;-2.566;2024-01-30T01:56:27;9.70;99.90
10492;DHT22;5293;51.464;-2.566;2024-01-30T01:58:55;9.70;99.90
10492;DHT22;5293;51.464;-2.566;2024-01-30T02:01:21;9.70;99.90
10492;DHT22;5293;51.464;-2.566;2024-01-30T02:03:47;9.60;99.90
10492;DHT22;5293;51.464;-2.566;2024-01-30T02:06:14;9.60;99.90
10492;DHT22;5293;51.464;-2.566;2024-01-30T02:08:40;9.50;99.90
10492;DHT22;5293;51.464;-2.566;2024-01-30T02:11:06;9.50;99.90
10492;DHT22;5293;51.464;-2.566;2024-01-30T02:13:31;9.60;99.90
10492;DHT22;5293;51.464;-2.566;2024-01-30T02:15:57;9.50;99.90
10492;DHT22;5293;51.464;-2.566;2024-01-30T02:18:23;9.40;99.90
10492;DHT22;5293;51.464;-2.566;2024-01-30T02:20:48;9.60;99.90
10492;DHT22;5293;51.464;-2.566;2024-01-30T02:23:18;9.50;99.90
10492;DHT22;5293;51.464;-2.566;2024-01-30T02:25:44;9.60;99.90
10492;DHT22;5293;51.464;-2.566;2024-01-30T02:28:13;9.50;99.90
10492;DHT22;5293;51.464;-2.566;2024-01-30T02:30:40;9.50;99.90
10492;DHT22;5293;51.464;-2.566;2024-01-30T02:33:06;9.50;99.90
10492;DHT22;5293;51.464;-2.566;2024-01-30T02:35:32;9.50;99.90
10492;DHT22;5293;51.464;-2.566;2024-01-30T02:37:58;9.50;99.90
10492;DHT22;5293;51.464;-2.566;2024-01-30T02:40:24;9.50;99.90
10492;DHT22;5293;51.464;-2.566;2024-01-30T02:42:50;9.50;99.90
10492;DHT22;5293;51.464;-2.566;2024-01-30T02:45:15;9.50;99.90
10492;DHT22;5293;51.464;-2.566;2024-01-30T02:47:41;9.40;99.90
10492;DHT22;5293;51.464;-2.566;2024-01-30T02:50:07;9.50;99.90
10492;DHT22;5293;51.464;-2.566;2024-01-30T02:52:33;9.40;99.90
10492;DHT22;5293;51.464;-2.566;2024-01-30T02:54:59;9.40;99.90
10492;DHT22;5293;51.464;-2.566;2024-01-30T02:57:25;9.40;99.90
10492;DHT22;5293;51.464;-2.566;2024-01-30T02:59:50;9.50;99.90
10492;DHT22;5293;51.464;-2.566;2024-01-30T03:02:16;9.50;99.90
10492;DHT22;5293;51.464;-2.566;2024-01-30T03:04:42;9.50;99.90
10492;DHT22;5293;51.464;-2.566;2024-01-30T03:07:08;9.40;99.90
10492;DHT22;5293;51.464;-2.566;2024-01-30T03:09:34;9.50;99.90
10492;DHT22;5293;51.464;-2.566;2024-01-30T03:11:59;9.40;99.90
10492;DHT22;5293;51.464;-2.566;2024-01-30T03:14:25;9.50;99.90
10492;DHT22;5293;51.464;-2.566;2024-01-30T03:16:50;9.40;99.90
10492;DHT22;5293;51.464;-2.566;2024-01-30T03:19:16;9.40;99.90
10492;DHT22;5293;51.464;-2.566;2024-01-30T03:21:42;9.30;99.90
10492;DHT22;5293;51.464;-2.566;2024-01-30T03:24:08;9.30;99.90
10492;DHT22;5293;51.464;-2.566;2024-01-30T03:26:34;9.30;99.90
10492;DHT22;5293;51.464;-2.566;2024-01-30T03:29:00;9.20;99.90
10492;DHT22;5293;51.464;-2.566;2024-01-30T03:31:25;9.20;99.90
10492;DHT22;5293;51.464;-2.566;2024-01-30T03:33:51;9.30;99.90
10492;DHT22;5293;51.464;-2.566;2024-01-30T03:36:17;9.30;99.90
10492;DHT22;5293;51.464;-2.566;2024-01-30T03:38:42;9.30;99.90
10492;DHT22;5293;51.464;-2.566;2024-01-30T03:41:08;9.30;99.90
10492;DHT22;5293;51.464;-2.566;2024-01-30T03:43:35;9.30;99.90
10492;DHT22;5293;51.464;-2.566;2024-01-30T03:46:01;9.40;99.90
10492;DHT22;5293;51.464;-2.566;2024-01-30T03:48:28;9.40;99.90
10492;DHT22;5293;51.464;-2.566;2024-01-30T03:50:54;9.40;99.90
10492;DHT22;5293;51.464;-2.566;2024-01-30T03:53:19;9.40;99.90
10492;DHT22;5293;51.464;-2.566;2024-01-30T03:55:45;9.40;99.90
10492;DHT22;5293;51.464;-2.566;2024-01-30T03:58:11;9.40;99.90
10492;DHT22;5293;51.464;-2.566;2024-01-30T04:00:36;9.40;99.90
10492;DHT22;5293;51.464;-2.566;2024-01-30T04:03:02;9.40;99.90
10492;DHT22;5293;51.464;-2.566;2024-01-30T04:05:28;9.40;99.90
10492;DHT22;5293;51.464;-2.566;2024-01-30T04:07:54;9.50;99.90
10492;DHT22;5293;51.464;-2.566;2024-01-30T04:10:19;9.50;99.90
10492;DHT22;5293;51.464;-2.566;2024-01-30T04:12:45;9.40;99.90
10492;DHT22;5293;51.464;-2.566;2024-01-30T04:15:11;9.50;99.90
10492;DHT22;5293;51.464;-2.566;2024-01-30T04:17:39;9.40;99.90
10492;DHT22;5293;51.464;-2.566;2024-01-30T04:20:05;9.40;99.90
10492;DHT22;5293;51.464;-2.566;2024-01-30T04:22:31;9.40;99.90
10492;DHT22;5293;51.464;-2.566;2024-01-30T04:24:57;9.40;99.90
10492;DHT22;5293;51.464;-2.566;2024-01-30T04:27:22;9.50;99.90
10492;DHT22;5293;51.464;-2.566;2024-01-30T04:29:48;9.50;99.90
10492;DHT22;5293;51.464;-2.566;2024-01-30T04:32:14;9.30;99.90
10492;DHT22;5293;51.464;-2.566;2024-01-30T04:34:40;9.30;99.90
10492;DHT22;5293;51.464;-2.566;2024-01-30T04:37:05;9.30;99.90
10492;DHT22;5293;51.464;-2.566;2024-01-30T04:39:33;9.30;99.90
10492;DHT22;5293;51.464;-2.566;2024-01-30T04:41:58;9.30;99.90
10492;DHT22;5293;51.464;-2.566;2024-01-30T04:44:25;9.20;99.90
10492;DHT22;5293;51.464;-2.566;2024-01-30T04:46:50;9.30;99.90
10492;DHT22;5293;51.464;-2.566;2024-01-30T04:49:16;9.30;99.90
10492;DHT22;5293;51.464;-2.566;2024-01-30T04:51:42;9.30;99.90
10492;DHT22;5293;51.464;-2.566;2024-01-30T04:54:07;9.30;99.90
10492;DHT22;5293;51.464;-2.566;2024-01-30T04:56:33;9.30;99.90
10492;DHT22;5293;51.464;-2.566;2024-01-30T04:58:59;9.30;99.90
10492;DHT22;5293;51.464;-2.566;2024-01-30T05:01:25;9.20;99.90
10492;DHT22;5293;51.464;-2.566;2024-01-30T05:03:51;9.30;99.90
10492;DHT22;5293;51.464;-2.566;2024-01-30T05:06:27;9.30;99.90
10492;DHT22;5293;51.464;-2.566;2024-01-30T05:08:53;9.30;99.90
10492;DHT22;5293;51.464;-2.566;2024-01-30T05:11:19;9.30;99.90
10492;DHT22;5293;51.464;-2.566;2024-01-30T05:13:44;9.30;99.90
10492;DHT22;5293;51.464;-2.566;2024-01-30T05:16:10;9.30;99.90
10492;DHT22;5293;51.464;-2.566;2024-01-30T05:18:36;9.30;99.90
10492;DHT22;5293;51.464;-2.566;2024-01-30T05:21:02;9.30;99.90
10492;DHT22;5293;51.464;-2.566;2024-01-30T05:23:28;9.40;99.90
10492;DHT22;5293;51.464;-2.566;2024-01-30T05:25:54;9.30;99.90
10492;DHT22;5293;51.464;-2.566;2024-01-30T05:28:19;9.30;99.90
10492;DHT22;5293;51.464;-2.566;2024-01-30T05:30:45;9.30;99.90
10492;DHT22;5293;51.464;-2.566;2024-01-30T05:33:11;9.30;99.90
10492;DHT22;5293;51.464;-2.566;2024-01-30T05:35:38;9.30;99.90
10492;DHT22;5293;51.464;-2.566;2024-01-30T05:38:03;9.30;99.90
10492;DHT22;5293;51.464;-2.566;2024-01-30T05:40:30;9.30;99.90
10492;DHT22;5293;51.464;-2.566;2024-01-30T05:42:56;9.30;99.90
10492;DHT22;5293;51.464;-2.566;2024-01-30T05:45:23;9.30;99.90
10492;DHT22;5293;51.464;-2.566;2024-01-30T05:47:49;9.20;99.90
10492;DHT22;5293;51.464;-2.566;2024-01-30T05:50:15;9.20;99.90
10492;DHT22;5293;51.464;-2.566;2024-01-30T05:52:40;9.20;99.90
10492;DHT22;5293;51.464;-2.566;2024-01-30T05:55:06;9.30;99.90
10492;DHT22;5293;51.464;-2.566;2024-01-30T05:57:32;9.20;99.90
10492;DHT22;5293;51.464;-2.566;2024-01-30T05:59:58;9.20;99.90
10492;DHT22;5293;51.464;-2.566;2024-01-30T06:02:23;9.30;99.90
10492;DHT22;5293;51.464;-2.566;2024-01-30T06:04:49;9.30;99.90
10492;DHT22;5293;51.464;-2.566;2024-01-30T06:07:15;9.20;99.90
10492;DHT22;5293;51.464;-2.566;2024-01-30T06:09:40;9.10;99.90
10492;DHT22;5293;51.464;-2.566;2024-01-30T06:12:07;9.00;99.90
10492;DHT22;5293;51.464;-2.566;2024-01-30T06:14:32;9.00;99.90
10492;DHT22;5293;51.464;-2.566;2024-01-30T06:16:59;9.00;99.90
10492;DHT22;5293;51.464;-2.566;2024-01-30T06:19:25;9.00;99.90
10492;DHT22;5293;51.464;-2.566;2024-01-30T06:21:50;9.00;99.90
10492;DHT22;5293;51.464;-2.566;2024-01-30T06:24:16;8.90;99.90
10492;DHT22;5293;51.464;-2.566;2024-01-30T06:26:42;8.90;99.90
10492;DHT22;5293;51.464;-2.566;2024-01-30T06:29:08;9.00;99.90
10492;DHT22;5293;51.464;-2.566;2024-01-30T06:31:40;9.00;99.90
10492;DHT22;5293;51.464;-2.566;2024-01-30T06:34:07;9.00;99.90
10492;DHT22;5293;51.464;-2.566;2024-01-30T06:36:32;9.00;99.90
10492;DHT22;5293;51.464;-2.566;2024-01-30T06:38:58;9.00;99.90
10492;DHT22;5293;51.464;-2.566;2024-01-30T06:41:24;9.00;99.90
10492;DHT22;5293;51.464;-2.566;2024-01-30T06:43:50;9.00;99.90
10492;DHT22;5293;51.464;-2.566;2024-01-30T06:46:15;9.00;99.90
10492;DHT22;5293;51.464;-2.566;2024-01-30T06:48:41;9.10;99.90
10492;DHT22;5293;51.464;-2.566;2024-01-30T06:51:10;9.10;99.90
10492;DHT22;5293;51.464;-2.566;2024-01-30T06:53:36;9.10;99.90
10492;DHT22;5293;51.464;-2.566;2024-01-30T06:56:02;9.00;99.90
10492;DHT22;5293;51.464;-2.566;2024-01-30T06:58:27;9.00;99.90
10492;DHT22;5293;51.464;-2.566;2024-01-30T07:00:53;9.00;99.90
10492;DHT22;5293;51.464;-2.566;2024-01-30T07:03:19;9.00;99.90
10492;DHT22;5293;51.464;-2.566;2024-01-30T07:05:45;9.00;99.90
10492;DHT22;5293;51.464;-2.566;2024-01-30T07:08:10;9.00;99.90
10492;DHT22;5293;51.464;-2.566;2024-01-30T07:10:36;8.90;99.90
10492;DHT22;5293;51.464;-2.566;2024-01-30T07:13:02;8.90;99.90
10492;DHT22;5293;51.464;-2.566;2024-01-30T07:15:29;8.90;99.90
10492;DHT22;5293;51.464;-2.566;2024-01-30T07:17:55;8.90;99.90
10492;DHT22;5293;51.464;-2.566;2024-01-30T07:20:20;8.90;99.90
10492;DHT22;5293;51.464;-2.566;2024-01-30T07:22:46;8.80;99.90
10492;DHT22;5293;51.464;-2.566;2024-01-30T07:25:12;8.90;99.90
10492;DHT22;5293;51.464;-2.566;2024-01-30T07:27:38;8.80;99.90
10492;DHT22;5293;51.464;-2.566;2024-01-30T07:30:04;8.80;99.90
10492;DHT22;5293;51.464;-2.566;2024-01-30T07:32:30;8.90;99.90
10492;DHT22;5293;51.464;-2.566;2024-01-30T07:34:55;8.80;99.90
10492;DHT22;5293;51.464;-2.566;2024-01-30T07:37:21;8.80;99.90
10492;DHT22;5293;51.464;-2.566;2024-01-30T07:39:47;8.80;99.90
10492;DHT22;5293;51.464;-2.566;2024-01-30T07:42:12;8.80;99.90
10492;DHT22;5293;51.464;-2.566;2024-01-30T07:44:38;8.80;99.90
10492;DHT22;5293;51.464;-2.566;2024-01-30T07:47:04;8.80;99.90
10492;DHT22;5293;51.464;-2.566;2024-01-30T07:49:30;8.90;99.90
10492;DHT22;5293;51.464;-2.566;2024-01-30T07:51:56;8.80;99.90
10492;DHT22;5293;51.464;-2.566;2024-01-30T07:54:21;8.80;99.90
10492;DHT22;5293;51.464;-2.566;2024-01-30T07:56:47;8.90;99.90
10492;DHT22;5293;51.464;-2.566;2024-01-30T07:59:13;8.80;99.90
10492;DHT22;5293;51.464;-2.566;2024-01-30T08:01:39;8.80;99.90
10492;DHT22;5293;51.464;-2.566;2024-01-30T08:04:04;8.80;99.90
10492;DHT22;5293;51.464;-2.566;2024-01-30T08:06:30;8.80;99.90
10492;DHT22;5293;51.464;-2.566;2024-01-30T08:08:56;8.80;99.90
10492;DHT22;5293;51.464;-2.566;2024-01-30T08:11:22;8.80;99.90
10492;DHT22;5293;51.464;-2.566;2024-01-30T08:13:55;8.90;99.90
10492;DHT22;5293;51.464;-2.566;2024-01-30T08:16:20;8.80;99.90
10492;DHT22;5293;51.464;-2.566;2024-01-30T08:18:46;8.80;99.90
10492;DHT22;5293;51.464;-2.566;2024-01-30T08:21:12;8.90;99.90
10492;DHT22;5293;51.464;-2.566;2024-01-30T08:23:40;8.90;99.90
10492;DHT22;5293;51.464;-2.566;2024-01-30T08:26:06;8.90;99.90
10492;DHT22;5293;51.464;-2.566;2024-01-30T08:28:32;8.90;99.90
10492;DHT22;5293;51.464;-2.566;2024-01-30T08:30:58;8.90;99.90
10492;DHT22;5293;51.464;-2.566;2024-01-30T08:33:24;8.80;99.90
10492;DHT22;5293;51.464;-2.566;2024-01-30T08:35:50;8.90;99.90
10492;DHT22;5293;51.464;-2.566;2024-01-30T08:38:15;8.90;99.90
10492;DHT22;5293;51.464;-2.566;2024-01-30T08:40:41;8.90;99.90
10492;DHT22;5293;51.464;-2.566;2024-01-30T08:43:07;8.80;99.90
10492;DHT22;5293;51.464;-2.566;2024-01-30T08:45:34;8.80;99.90
10492;DHT22;5293;51.464;-2.566;2024-01-30T08:48:00;8.70;99.90
10492;DHT22;5293;51.464;-2.566;2024-01-30T08:50:26;8.80;99.90
10492;DHT22;5293;51.464;-2.566;2024-01-30T08:52:52;8.80;99.90
10492;DHT22;5293;51.464;-2.566;2024-01-30T08:55:17;8.70;99.90
10492;DHT22;5293;51.464;-2.566;2024-01-30T08:57:43;8.70;99.90
10492;DHT22;5293;51.464;-2.566;2024-01-30T09:00:09;8.60;99.90
10492;DHT22;5293;51.464;-2.566;2024-01-30T09:02:35;8.60;99.90
10492;DHT22;5293;51.464;-2.566;2024-01-30T09:05:01;8.60;99.90
10492;DHT22;5293;51.464;-2.566;2024-01-30T09:07:27;8.60;99.90
10492;DHT22;5293;51.464;-2.566;2024-01-30T09:09:52;8.60;99.90
10492;DHT22;5293;51.464;-2.566;2024-01-30T09:12:18;8.70;99.90
10492;DHT22;5293;51.464;-2.566;2024-01-30T09:14:44;8.70;99.90
10492;DHT22;5293;51.464;-2.566;2024-01-30T09:17:09;8.90;99.90
10492;DHT22;5293;51.464;-2.566;2024-01-30T09:19:35;9.10;99.90
10492;DHT22;5293;51.464;-2.566;2024-01-30T09:22:01;9.20;99.90
10492;DHT22;5293;51.464;-2.566;2024-01-30T09:24:27;9.10;99.90
10492;DHT22;5293;51.464;-2.566;2024-01-30T09:26:53;9.20;99.90
10492;DHT22;5293;51.464;-2.566;2024-01-30T09:29:18;9.20;99.90
10492;DHT22;5293;51.464;-2.566;2024-01-30T09:31:45;9.10;99.90
10492;DHT22;5293;51.464;-2.566;2024-01-30T09:34:11;9.00;99.90
10492;DHT22;5293;51.464;-2.566;2024-01-30T09:36:37;9.00;99.90
10492;DHT22;5293;51.464;-2.566;2024-01-30T09:39:03;9.00;99.90
10492;DHT22;5293;51.464;-2.566;2024-01-30T09:41:36;9.00;99.90
10492;DHT22;5293;51.464;-2.566;2024-01-30T09:44:08;9.00;99.90
10492;DHT22;5293;51.464;-2.566;2024-01-30T09:46:35;9.00;99.90
10492;DHT22;5293;51.464;-2.566;2024-01-30T09:49:02;9.00;99.90
10492;DHT22;5293;51.464;-2.566;2024-01-30T09:51:29;9.10;99.90
10492;DHT22;5293;51.464;-2.566;2024-01-30T09:53:56;9.20;99.90
10492;DHT22;5293;51.464;-2.566;2024-01-30T09:56:22;9.10;99.90
10492;DHT22;5293;51.464;-2.566;2024-01-30T09:58:47;9.10;99.90
10492;DHT22;5293;51.464;-2.566;2024-01-30T10:01:15;9.10;99.90
10492;DHT22;5293;51.464;-2.566;2024-01-30T10:03:44;9.20;99.90
10492;DHT22;5293;51.464;-2.566;2024-01-30T10:06:10;9.20;99.90
10492;DHT22;5293;51.464;-2.566;2024-01-30T10:08:36;9.30;99.90
10492;DHT22;5293;51.464;-2.566;2024-01-30T10:11:02;9.30;99.90
10492;DHT22;5293;51.464;-2.566;2024-01-30T10:13:28;9.30;99.90
10492;DHT22;5293;51.464;-2.566;2024-01-30T10:15:55;9.30;99.90
10492;DHT22;5293;51.464;-2.566;2024-01-30T10:18:22;9.20;99.90
10492;DHT22;5293;51.464;-2.566;2024-01-30T10:20:48;9.30;99.90
10492;DHT22;5293;51.464;-2.566;2024-01-30T10:23:14;9.40;99.90
10492;DHT22;5293;51.464;-2.566;2024-01-30T10:25:39;9.30;99.90
10492;DHT22;5293;51.464;-2.566;2024-01-30T10:28:05;9.30;99.90
10492;DHT22;5293;51.464;-2.566;2024-01-30T10:30:31;9.30;99.90
10492;DHT22;5293;51.464;-2.566;2024-01-30T10:32:57;9.20;99.90
10492;DHT22;5293;51.464;-2.566;2024-01-30T10:35:22;9.10;99.90
10492;DHT22;5293;51.464;-2.566;2024-01-30T10:37:48;9.20;99.90
10492;DHT22;5293;51.464;-2.566;2024-01-30T10:40:15;9.20;99.90
10492;DHT22;5293;51.464;-2.566;2024-01-30T10:42:45;9.20;99.90
10492;DHT22;5293;51.464;-2.566;2024-01-30T10:45:14;9.30;99.90
10492;DHT22;5293;51.464;-2.566;2024-01-30T10:47:49;9.20;99.90
10492;DHT22;5293;51.464;-2.566;2024-01-30T10:50:15;9.20;99.90
10492;DHT22;5293;51.464;-2.566;2024-01-30T10:52:42;9.20;99.90
10492;DHT22;5293;51.464;-2.566;2024-01-30T10:55:10;9.30;99.90
10492;DHT22;5293;51.464;-2.566;2024-01-30T10:57:36;9.30;99.90
10492;DHT22;5293;51.464;-2.566;2024-01-30T11:00:08;9.30;99.90
10492;DHT22;5293;51.464;-2.566;2024-01-30T11:02:40;9.30;99.90
10492;DHT22;5293;51.464;-2.566;2024-01-30T11:05:08;9.30;99.90
10492;DHT22;5293;51.464;-2.566;2024-01-30T11:07:34;9.30;99.90
10492;DHT22;5293;51.464;-2.566;2024-01-30T11:10:00;9.40;99.90
10492;DHT22;5293;51.464;-2.566;2024-01-30T11:12:27;9.40;99.90
10492;DHT22;5293;51.464;-2.566;2024-01-30T11:15:07;9.40;99.90
10492;DHT22;5293;51.464;-2.566;2024-01-30T11:20:30;9.30;99.90
10492;DHT22;5293;51.464;-2.566;2024-01-30T11:23:01;9.20;99.90
10492;DHT22;5293;51.464;-2.566;2024-01-30T11:25:32;9.10;99.90
10492;DHT22;5293;51.464;-2.566;2024-01-30T11:27:58;9.20;99.90
10492;DHT22;5293;51.464;-2.566;2024-01-30T11:30:31;9.20;99.90
10492;DHT22;5293;51.464;-2.566;2024-01-30T11:33:07;9.20;99.90
10492;DHT22;5293;51.464;-2.566;2024-01-30T11:35:38;9.20;99.90
10492;DHT22;5293;51.464;-2.566;2024-01-30T11:38:08;9.20;99.90
10492;DHT22;5293;51.464;-2.566;2024-01-30T11:40:35;9.30;99.90
10492;DHT22;5293;51.464;-2.566;2024-01-30T11:43:02;9.30;99.90
10492;DHT22;5293;51.464;-2.566;2024-01-30T11:45:28;9.30;99.90
10492;DHT22;5293;51.464;-2.566;2024-01-30T11:47:55;9.30;99.90
10492;DHT22;5293;51.464;-2.566;2024-01-30T11:50:21;9.40;99.90
10492;DHT22;5293;51.464;-2.566;2024-01-30T11:52:48;9.30;99.90
10492;DHT22;5293;51.464;-2.566;2024-01-30T11:55:14;9.40;99.90
10492;DHT22;5293;51.464;-2.566;2024-01-30T11:57:41;9.30;99.90
10492;DHT22;5293;51.464;-2.566;2024-01-30T12:00:19;9.30;99.90
10492;DHT22;5293;51.464;-2.566;2024-01-30T12:02:53;9.40;99.90
10492;DHT22;5293;51.464;-2.566;2024-01-30T12:05:24;9.30;99.90
10492;DHT22;5293;51.464;-2.566;2024-01-30T12:07:49;9.40;99.90
10492;DHT22;5293;51.464;-2.566;2024-01-30T12:10:15;9.40;99.90
10492;DHT22;5293;51.464;-2.566;2024-01-30T12:12:43;9.40;99.90
10492;DHT22;5293;51.464;-2.566;2024-01-30T12:15:10;9.50;99.90
10492;DHT22;5293;51.464;-2.566;2024-01-30T12:17:36;9.60;99.90
10492;DHT22;5293;51.464;-2.566;2024-01-30T12:22:38;9.50;99.90
10492;DHT22;5293;51.464;-2.566;2024-01-30T12:25:07;9.50;99.90
10492;DHT22;5293;51.464;-2.566;2024-01-30T12:27:33;9.50;99.90
10492;DHT22;5293;51.464;-2.566;2024-01-30T12:29:59;9.50;99.90
10492;DHT22;5293;51.464;-2.566;2024-01-30T12:32:25;9.50;99.90
10492;DHT22;5293;51.464;-2.566;2024-01-30T12:34:54;9.60;99.90
10492;DHT22;5293;51.464;-2.566;2024-01-30T12:37:20;9.60;99.90
10492;DHT22;5293;51.464;-2.566;2024-01-30T12:39:48;9.60;99.90
10492;DHT22;5293;51.464;-2.566;2024-01-30T12:42:14;9.70;99.90
10492;DHT22;5293;51.464;-2.566;2024-01-30T12:44:41;9.70;99.90
10492;DHT22;5293;51.464;-2.566;2024-01-30T12:47:08;9.70;99.90
10492;DHT22;5293;51.464;-2.566;2024-01-30T12:49:34;9.70;99.90
10492;DHT22;5293;51.464;-2.566;2024-01-30T12:52:00;9.60;99.90
10492;DHT22;5293;51.464;-2.566;2024-01-30T12:54:25;9.60;99.90
10492;DHT22;5293;51.464;-2.566;2024-01-30T12:56:51;9.60;99.90
10492;DHT22;5293;51.464;-2.566;2024-01-30T12:59:17;9.60;99.90
10492;DHT22;5293;51.464;-2.566;2024-01-30T13:01:43;9.70;99.90
10492;DHT22;5293;51.464;-2.566;2024-01-30T13:04:08;9.80;99.90
10492;DHT22;5293;51.464;-2.566;2024-01-30T13:06:34;9.90;99.90
10492;DHT22;5293;51.464;-2.566;2024-01-30T13:09:00;9.90;99.90
10492;DHT22;5293;51.464;-2.566;2024-01-30T13:11:25;10.00;99.90
10492;DHT22;5293;51.464;-2.566;2024-01-30T13:13:51;9.80;99.90
10492;DHT22;5293;51.464;-2.566;2024-01-30T13:16:17;9.80;99.90
10492;DHT22;5293;51.464;-2.566;2024-01-30T13:18:44;9.80;99.90
10492;DHT22;5293;51.464;-2.566;2024-01-30T13:21:09;9.90;99.90
10492;DHT22;5293;51.464;-2.566;2024-01-30T13:23:35;9.90;99.90
10492;DHT22;5293;51.464;-2.566;2024-01-30T13:26:01;10.00;99.90
10492;DHT22;5293;51.464;-2.566;2024-01-30T13:28:27;10.00;99.90
10492;DHT22;5293;51.464;-2.566;2024-01-30T13:30:53;10.00;99.90
10492;DHT22;5293;51.464;-2.566;2024-01-30T13:33:19;10.10;99.90
10492;DHT22;5293;51.464;-2.566;2024-01-30T13:35:45;10.10;99.90
10492;DHT22;5293;51.464;-2.566;2024-01-30T13:38:10;10.20;99.90
10492;DHT22;5293;51.464;-2.566;2024-01-30T13:40:36;10.20;99.90
10492;DHT22;5293;51.464;-2.566;2024-01-30T13:43:02;10.10;99.90
10492;DHT22;5293;51.464;-2.566;2024-01-30T13:45:28;10.10;99.90
10492;DHT22;5293;51.464;-2.566;2024-01-30T13:47:54;10.20;99.90
10492;DHT22;5293;51.464;-2.566;2024-01-30T13:50:19;10.10;99.90
10492;DHT22;5293;51.464;-2.566;2024-01-30T13:52:45;10.10;99.90
10492;DHT22;5293;51.464;-2.566;2024-01-30T13:55:11;10.00;99.90
10492;DHT22;5293;51.464;-2.566;2024-01-30T13:57:37;9.90;99.90
10492;DHT22;5293;51.464;-2.566;2024-01-30T14:00:04;9.90;99.90
10492;DHT22;5293;51.464;-2.566;2024-01-30T14:02:32;10.00;99.90
10492;DHT22;5293;51.464;-2.566;2024-01-30T14:04:58;10.00;99.90
10492;DHT22;5293;51.464;-2.566;2024-01-30T14:07:23;10.00;99.90
10492;DHT22;5293;51.464;-2.566;2024-01-30T14:09:49;10.00;99.90
10492;DHT22;5293;51.464;-2.566;2024-01-30T14:12:15;10.00;99.90
10492;DHT22;5293;51.464;-2.566;2024-01-30T14:14:41;9.90;99.90
10492;DHT22;5293;51.464;-2.566;2024-01-30T14:17:07;10.00;99.90
10492;DHT22;5293;51.464;-2.566;2024-01-30T14:19:35;10.10;99.90
10492;DHT22;5293;51.464;-2.566;2024-01-30T14:22:02;10.20;99.90
10492;DHT22;5293;51.464;-2.566;2024-01-30T14:24:27;10.20;99.90
10492;DHT22;5293;51.464;-2.566;2024-01-30T14:26:53;10.20;99.90
10492;DHT22;5293;51.464;-2.566;2024-01-30T14:29:19;10.10;99.90
10492;DHT22;5293;51.464;-2.566;2024-01-30T14:31:45;10.20;99.90
10492;DHT22;5293;51.464;-2.566;2024-01-30T14:34:10;10.10;99.90
10492;DHT22;5293;51.464;-2.566;2024-01-30T14:36:39;10.00;99.90
10492;DHT22;5293;51.464;-2.566;2024-01-30T14:39:05;10.10;99.90
10492;DHT22;5293;51.464;-2.566;2024-01-30T14:41:32;10.10;99.90
10492;DHT22;5293;51.464;-2.566;2024-01-30T14:43:58;10.10;99.90
10492;DHT22;5293;51.464;-2.566;2024-01-30T14:46:24;10.00;99.90
10492;DHT22;5293;51.464;-2.566;2024-01-30T14:48:52;10.00;99.90
10492;DHT22;5293;51.464;-2.566;2024-01-30T14:51:17;10.00;99.90
10492;DHT22;5293;51.464;-2.566;2024-01-30T14:53:43;10.00;99.90
10492;DHT22;5293;51.464;-2.566;2024-01-30T14:56:09;10.00;99.90
10492;DHT22;5293;51.464;-2.566;2024-01-30T14:58:35;10.10;99.90
10492;DHT22;5293;51.464;-2.566;2024-01-30T15:01:01;10.10;99.90
10492;DHT22;5293;51.464;-2.566;2024-01-30T15:03:27;10.10;99.90
10492;DHT22;5293;51.464;-2.566;2024-01-30T15:05:56;10.10;99.90
10492;DHT22;5293;51.464;-2.566;2024-01-30T15:08:22;10.00;99.90
10492;DHT22;5293;51.464;-2.566;2024-01-30T15:10:48;9.90;99.90
10492;DHT22;5293;51.464;-2.566;2024-01-30T15:13:15;9.80;99.90
10492;DHT22;5293;51.464;-2.566;2024-01-30T15:15:41;9.80;99.90
10492;DHT22;5293;51.464;-2.566;2024-01-30T15:18:08;9.80;99.90
10492;DHT22;5293;51.464;-2.566;2024-01-30T15:20:36;9.90;99.90
10492;DHT22;5293;51.464;-2.566;2024-01-30T15:23:02;9.80;99.90
10492;DHT22;5293;51.464;-2.566;2024-01-30T15:25:27;9.80;99.90
10492;DHT22;5293;51.464;-2.566;2024-01-30T15:27:54;9.80;99.90
10492;DHT22;5293;51.464;-2.566;2024-01-30T15:30:20;9.90;99.90
10492;DHT22;5293;51.464;-2.566;2024-01-30T15:32:46;9.80;99.90
10492;DHT22;5293;51.464;-2.566;2024-01-30T15:35:12;9.90;99.90
10492;DHT22;5293;51.464;-2.566;2024-01-30T15:37:38;9.90;99.90
10492;DHT22;5293;51.464;-2.566;2024-01-30T15:40:04;9.90;99.90
10492;DHT22;5293;51.464;-2.566;2024-01-30T15:42:32;9.90;99.90